createdAt,value
2022-09-02T00:01:31.441Z,100181.88
2022-09-02T00:04:01.673Z,100175.44
2022-09-02T00:06:29.807Z,100177.16
2022-09-02T00:08:56.497Z,100178.63
2022-09-02T00:11:26.465Z,100178.63
2022-09-02T00:13:53.760Z,100174.31
2022-09-02T00:16:20.865Z,100168.81
2022-09-02T00:18:47.515Z,100169.72
2022-09-02T00:21:15.743Z,100169.34
2022-09-02T00:23:44.218Z,100167.03
2022-09-02T00:26:12.379Z,100175.09
2022-09-02T00:28:40.591Z,100174.97
2022-09-02T00:31:15.876Z,100168.88
2022-09-02T00:33:42.657Z,100175.31
2022-09-02T00:36:09.749Z,100165.66
2022-09-02T00:38:36.895Z,100169.66
2022-09-02T00:41:06.659Z,100171.66
2022-09-02T00:43:49.411Z,100167.03
2022-09-02T00:46:19.734Z,100164.91
2022-09-02T00:48:59.483Z,100168.03
2022-09-02T00:51:31.646Z,100166.56
2022-09-02T00:53:59.561Z,100166.28
2022-09-02T00:56:30.260Z,100159.06
2022-09-02T00:58:58.371Z,100161.00
2022-09-02T01:01:25.361Z,100163.84
2022-09-02T01:03:52.116Z,100163.78
2022-09-02T01:06:22.916Z,100156.75
2022-09-02T01:08:55.961Z,100160.19
2022-09-02T01:11:23.355Z,100157.84
2022-09-02T01:13:50.237Z,100158.75
2022-09-02T01:16:25.699Z,100161.50
2022-09-02T01:18:56.452Z,100155.00
2022-09-02T01:21:23.709Z,100164.69
2022-09-02T01:23:51.748Z,100163.50
2022-09-02T01:26:18.994Z,100161.72
2022-09-02T01:28:45.785Z,100166.16
2022-09-02T01:31:12.676Z,100163.34
2022-09-02T01:33:39.447Z,100162.97
2022-09-02T01:36:06.516Z,100157.53
2022-09-02T01:38:33.139Z,100158.34
2022-09-02T01:41:00.379Z,100157.25
2022-09-02T01:43:28.505Z,100155.34
2022-09-02T01:45:57.376Z,100161.66
2022-09-02T01:48:24.483Z,100159.53
2022-09-02T01:50:58.842Z,100152.50
2022-09-02T01:53:26.833Z,100156.50
2022-09-02T01:55:53.468Z,100155.91
2022-09-02T01:58:20.495Z,100148.16
2022-09-02T02:00:47.572Z,100152.00
2022-09-02T02:03:14.648Z,100146.09
2022-09-02T02:05:41.654Z,100145.75
2022-09-02T02:08:08.481Z,100146.28
2022-09-02T02:10:35.693Z,100142.00
2022-09-02T02:13:03.035Z,100147.03
2022-09-02T02:17:55.470Z,100142.16
2022-09-02T02:20:22.391Z,100141.94
2022-09-02T02:22:49.613Z,100142.72
2022-09-02T02:25:17.393Z,100147.91
2022-09-02T02:27:44.297Z,100139.81
2022-09-02T02:30:13.625Z,100145.09
2022-09-02T02:32:40.472Z,100134.97
2022-09-02T02:35:07.592Z,100133.41
2022-09-02T02:37:34.265Z,100131.75
2022-09-02T02:40:00.924Z,100131.22
2022-09-02T02:42:27.578Z,100135.59
2022-09-02T02:44:54.302Z,100140.28
2022-09-02T02:47:20.969Z,100132.44
2022-09-02T02:49:47.650Z,100128.91
2022-09-02T02:52:14.505Z,100126.31
2022-09-02T02:54:41.770Z,100131.47
2022-09-02T02:57:09.467Z,100130.28
2022-09-02T02:59:37.055Z,100131.88
2022-09-02T03:02:05.903Z,100137.44
2022-09-02T03:04:32.903Z,100131.75
2022-09-02T03:06:59.900Z,100133.78
2022-09-02T03:09:26.561Z,100123.94
2022-09-02T03:11:53.167Z,100128.91
2022-09-02T03:14:19.948Z,100124.88
2022-09-02T03:16:46.629Z,100120.16
2022-09-02T03:19:13.280Z,100122.88
2022-09-02T03:21:40.886Z,100126.44
2022-09-02T03:24:08.951Z,100123.69
2022-09-02T03:26:36.077Z,100128.25
2022-09-02T03:29:04.142Z,100118.66
2022-09-02T03:31:30.876Z,100123.03
2022-09-02T03:33:57.622Z,100118.25
2022-09-02T03:36:28.583Z,100123.28
2022-09-02T03:38:55.938Z,100130.97
2022-09-02T03:41:23.951Z,100131.75
2022-09-02T03:43:50.764Z,100127.72
2022-09-02T03:46:17.910Z,100131.09
2022-09-02T03:48:45.171Z,100128.56
2022-09-02T03:51:12.504Z,100133.63
2022-09-02T03:53:39.215Z,100132.72
2022-09-02T03:56:07.960Z,100133.75
2022-09-02T03:58:35.715Z,100134.22
2022-09-02T04:01:03.201Z,100129.34
2022-09-02T04:03:29.828Z,100129.34
2022-09-02T04:05:56.574Z,100138.63
2022-09-02T04:08:23.649Z,100135.63
2022-09-02T04:10:50.635Z,100137.66
2022-09-02T04:13:18.177Z,100129.47
2022-09-02T04:15:46.799Z,100133.69
2022-09-02T04:18:15.852Z,100136.09
2022-09-02T04:20:43.358Z,100139.81
2022-09-02T04:23:10.132Z,100141.19
2022-09-02T04:25:44.070Z,100133.56
2022-09-02T04:28:10.923Z,100137.38
2022-09-02T04:30:42.015Z,100131.59
2022-09-02T04:33:09.084Z,100139.47
2022-09-02T04:35:40.232Z,100138.88
2022-09-02T04:38:06.859Z,100142.19
2022-09-02T04:40:33.531Z,100139.13
2022-09-02T04:43:00.210Z,100142.84
2022-09-02T04:45:29.893Z,100137.97
2022-09-02T04:47:56.680Z,100144.16
2022-09-02T04:50:23.305Z,100149.44
2022-09-02T04:52:49.983Z,100147.22
2022-09-02T04:55:16.940Z,100149.16
2022-09-02T04:57:43.742Z,100140.91
2022-09-02T05:00:10.902Z,100143.50
2022-09-02T05:02:37.541Z,100146.63
2022-09-02T05:05:04.538Z,100146.75
2022-09-02T05:07:31.176Z,100144.03
2022-09-02T05:09:59.372Z,100148.72
2022-09-02T05:12:26.066Z,100155.41
2022-09-02T05:14:52.858Z,100157.06
2022-09-02T05:17:19.487Z,100152.56
2022-09-02T05:19:46.122Z,100146.44
2022-09-02T05:22:12.797Z,100148.59
2022-09-02T05:24:39.445Z,100150.28
2022-09-02T05:27:06.060Z,100151.84
2022-09-02T05:29:32.770Z,100155.94
2022-09-02T05:31:59.385Z,100150.28
2022-09-02T05:34:26.570Z,100150.66
2022-09-02T05:36:53.313Z,100149.50
2022-09-02T05:39:19.952Z,100155.22
2022-09-02T05:41:46.649Z,100160.25
2022-09-02T05:44:13.400Z,100153.97
2022-09-02T05:46:40.046Z,100153.97
2022-09-02T05:49:06.803Z,100151.13
2022-09-02T05:51:39.971Z,100145.72
2022-09-02T05:54:07.447Z,100145.66
2022-09-02T05:56:34.088Z,100156.03
2022-09-02T05:59:01.770Z,100146.19
2022-09-02T06:01:28.707Z,100150.50
2022-09-02T06:03:55.524Z,100147.22
2022-09-02T06:06:22.207Z,100145.56
2022-09-02T06:08:48.868Z,100152.66
2022-09-02T06:11:15.563Z,100150.66
2022-09-02T06:13:42.911Z,100160.75
2022-09-02T06:16:14.713Z,100157.00
2022-09-02T06:18:41.413Z,100160.03
2022-09-02T06:21:08.177Z,100154.09
2022-09-02T06:23:36.894Z,100157.84
2022-09-02T06:26:03.971Z,100156.75
2022-09-02T06:28:31.065Z,100163.41
2022-09-02T06:30:58.330Z,100153.22
2022-09-02T06:33:25.213Z,100160.53
2022-09-02T06:35:51.966Z,100166.53
2022-09-02T06:38:18.692Z,100160.97
2022-09-02T06:40:54.256Z,100159.66
2022-09-02T06:43:21.252Z,100160.72
2022-09-02T06:45:48.076Z,100167.44
2022-09-02T06:48:14.855Z,100170.09
2022-09-02T06:50:44.512Z,100165.59
2022-09-02T06:53:11.414Z,100162.28
2022-09-02T06:55:40.983Z,100157.50
2022-09-02T06:58:08.398Z,100164.00
2022-09-02T07:00:35.320Z,100163.28
2022-09-02T07:03:03.542Z,100163.78
2022-09-02T07:05:30.153Z,100173.00
2022-09-02T07:07:56.822Z,100169.50
2022-09-02T07:10:23.448Z,100168.31
2022-09-02T07:12:50.227Z,100164.75
2022-09-02T07:15:17.069Z,100170.91
2022-09-02T07:17:46.611Z,100164.59
2022-09-02T07:20:13.243Z,100163.47
2022-09-02T07:22:40.028Z,100157.53
2022-09-02T07:25:07.810Z,100166.22
2022-09-02T07:27:35.636Z,100166.06
2022-09-02T07:30:02.432Z,100170.72
2022-09-02T07:32:29.185Z,100168.41
2022-09-02T07:34:55.824Z,100168.88
2022-09-02T07:37:25.323Z,100164.81
2022-09-02T07:39:51.931Z,100166.13
2022-09-02T07:42:18.834Z,100163.50
2022-09-02T07:44:45.496Z,100163.25
2022-09-02T07:47:12.123Z,100166.06
2022-09-02T07:52:26.227Z,100169.94
2022-09-02T07:54:52.887Z,100167.41
2022-09-02T07:57:19.635Z,100172.88
2022-09-02T07:59:46.370Z,100164.06
2022-09-02T08:02:13.480Z,100162.25
2022-09-02T08:04:40.518Z,100169.38
2022-09-02T08:07:07.226Z,100166.00
2022-09-02T08:09:33.908Z,100172.47
2022-09-02T08:12:00.676Z,100172.03
2022-09-02T08:14:27.534Z,100164.56
2022-09-02T08:16:56.394Z,100158.06
2022-09-02T08:19:27.884Z,100164.50
2022-09-02T08:21:54.562Z,100164.09
2022-09-02T08:24:21.201Z,100163.41
2022-09-02T08:26:47.882Z,100165.00
2022-09-02T08:29:14.503Z,100154.97
2022-09-02T08:31:41.345Z,100160.47
2022-09-02T08:34:08.094Z,100152.22
2022-09-02T08:36:34.864Z,100160.47
2022-09-02T08:39:03.953Z,100156.28
2022-09-02T08:42:03.312Z,100154.53
2022-09-02T08:44:30.233Z,100147.91
2022-09-02T08:47:04.517Z,100150.66
2022-09-02T08:49:39.133Z,100150.16
2022-09-02T08:52:06.142Z,100147.22
2022-09-02T08:54:41.835Z,100152.72
2022-09-02T08:57:09.399Z,100150.88
2022-09-02T09:02:55.312Z,100153.63
2022-09-02T09:05:50.101Z,100152.69
2022-09-02T09:08:29.425Z,100142.03
2022-09-02T09:11:15.862Z,100154.19
2022-09-02T09:14:26.957Z,100147.00
2022-09-02T09:16:59.640Z,100152.44
2022-09-02T09:19:39.708Z,100139.78
2022-09-02T09:22:06.347Z,100140.59
2022-09-02T09:24:37.163Z,100141.47
2022-09-02T09:27:10.682Z,100143.78
2022-09-02T09:29:37.407Z,100141.28
2022-09-02T09:32:13.543Z,100148.00
2022-09-02T09:35:10.573Z,100149.78
2022-09-02T09:37:40.087Z,100148.38
2022-09-02T09:40:19.244Z,100147.56
2022-09-02T09:42:49.845Z,100144.00
2022-09-02T09:45:27.430Z,100150.84
2022-09-02T09:48:28.102Z,100142.34
2022-09-02T09:50:57.536Z,100136.06
2022-09-02T09:53:33.119Z,100146.75
2022-09-02T09:56:05.215Z,100136.91
2022-09-02T09:58:41.046Z,100125.47
2022-09-02T10:01:20.033Z,100132.56
2022-09-02T10:03:52.655Z,100125.09
2022-09-02T10:06:21.453Z,100123.72
2022-09-02T10:08:53.649Z,100121.25
2022-09-02T10:11:31.608Z,100126.97
2022-09-02T10:14:10.390Z,100132.03
2022-09-02T10:16:59.762Z,100136.44
2022-09-02T10:19:37.651Z,100134.44
2022-09-02T10:23:00.025Z,100130.34
2022-09-02T10:25:58.675Z,100128.22
2022-09-02T10:28:31.307Z,100131.63
2022-09-02T10:31:12.278Z,100134.84
2022-09-02T10:33:51.831Z,100129.09
2022-09-02T10:36:47.311Z,100129.59
2022-09-02T10:39:20.623Z,100130.69
2022-09-02T10:41:47.535Z,100126.47
2022-09-02T10:44:26.851Z,100127.25
2022-09-02T10:47:18.365Z,100129.91
2022-09-02T10:49:53.666Z,100129.97
2022-09-02T10:52:20.238Z,100128.47
2022-09-02T10:55:22.154Z,100126.31
2022-09-02T10:58:05.073Z,100120.66
2022-09-02T11:00:32.337Z,100121.22
2022-09-02T11:03:08.236Z,100118.63
2022-09-02T11:05:47.564Z,100121.56
2022-09-02T11:08:31.858Z,100127.75
2022-09-02T11:10:58.482Z,100125.88
2022-09-02T11:13:34.933Z,100118.53
2022-09-02T11:16:15.192Z,100119.44
2022-09-02T11:18:50.674Z,100122.25
2022-09-02T11:21:40.718Z,100111.09
2022-09-02T11:24:16.441Z,100117.16
2022-09-02T11:26:54.061Z,100113.06
2022-09-02T11:29:31.004Z,100101.00
2022-09-02T11:32:12.475Z,100103.50
2022-09-02T11:34:47.127Z,100108.91
2022-09-02T11:37:34.770Z,100101.25
2022-09-02T11:40:32.751Z,100093.38
2022-09-02T11:43:35.941Z,100102.66
2022-09-02T11:46:17.576Z,100094.22
2022-09-02T11:49:10.773Z,100105.09
2022-09-02T11:51:48.537Z,100096.66
2022-09-02T11:54:20.293Z,100091.44
2022-09-02T11:56:58.622Z,100085.94
2022-09-02T11:59:54.917Z,100087.69
2022-09-02T12:03:16.769Z,100084.47
2022-09-02T12:06:12.040Z,100080.59
2022-09-02T12:08:41.832Z,100083.50
2022-09-02T12:11:09.823Z,100081.94
2022-09-02T12:13:42.865Z,100085.22
2022-09-02T12:16:12.885Z,100080.81
2022-09-02T12:18:43.097Z,100082.28
2022-09-02T12:21:16.508Z,100082.56
2022-09-02T12:23:49.398Z,100079.84
2022-09-02T12:26:38.359Z,100088.34
2022-09-02T12:29:20.429Z,100080.22
2022-09-02T12:31:52.526Z,100078.50
2022-09-02T12:34:22.209Z,100079.72
2022-09-02T12:36:49.467Z,100077.56
2022-09-02T12:39:25.244Z,100077.50
2022-09-02T12:42:21.121Z,100073.94
2022-09-02T12:45:07.305Z,100065.00
2022-09-02T12:47:59.682Z,100061.34
2022-09-02T12:50:33.116Z,100069.25
2022-09-02T12:53:44.310Z,100058.47
2022-09-02T12:56:13.647Z,100063.22
2022-09-02T12:58:46.491Z,100065.31
2022-09-02T13:01:14.889Z,100057.75
2022-09-02T13:03:56.699Z,100056.31
2022-09-02T13:06:57.344Z,100041.28
2022-09-02T13:09:52.057Z,100054.53
2022-09-02T13:12:21.610Z,100049.00
2022-09-02T13:14:53.069Z,100049.84
2022-09-02T13:17:36.179Z,100050.09
2022-09-02T13:20:18.776Z,100042.63
2022-09-02T13:23:15.249Z,100041.13
2022-09-02T13:26:07.104Z,100038.66
2022-09-02T13:28:54.712Z,100042.69
2022-09-02T13:31:28.172Z,100046.13
2022-09-02T13:34:05.442Z,100040.69
2022-09-02T13:36:44.818Z,100042.78
2022-09-02T13:39:17.540Z,100038.00
2022-09-02T13:41:45.400Z,100035.13
2022-09-02T13:44:20.127Z,100035.91
2022-09-02T13:46:49.744Z,100035.44
2022-09-02T13:49:35.174Z,100035.72
2022-09-02T13:52:08.147Z,100027.25
2022-09-02T13:54:44.812Z,100030.13
2022-09-02T13:57:26.811Z,100028.03
2022-09-02T13:59:56.081Z,100028.28
2022-09-02T14:02:33.201Z,100025.84
2022-09-02T14:05:11.391Z,100021.34
2022-09-02T14:07:43.687Z,100027.50
2022-09-02T14:10:13.477Z,100021.09
2022-09-02T14:12:40.988Z,100022.91
2022-09-02T14:15:11.688Z,100039.09
2022-09-02T14:17:38.348Z,100032.84
2022-09-02T14:20:22.025Z,100032.13
2022-09-02T14:22:54.401Z,100040.91
2022-09-02T14:25:26.676Z,100041.81
2022-09-02T14:27:56.953Z,100041.81
2022-09-02T14:30:33.761Z,100043.53
2022-09-02T14:33:43.135Z,100044.50
2022-09-02T14:36:29.692Z,100050.81
2022-09-02T14:39:07.648Z,100051.31
2022-09-02T14:41:35.724Z,100046.69
2022-09-02T14:44:15.628Z,100050.22
2022-09-02T14:46:48.676Z,100048.09
2022-09-02T14:49:28.290Z,100052.84
2022-09-02T14:51:59.049Z,100059.81
2022-09-02T14:54:43.091Z,100061.94
2022-09-02T14:57:33.182Z,100059.28
2022-09-02T15:00:09.476Z,100064.59
2022-09-02T15:02:36.831Z,100063.50
2022-09-02T15:05:07.737Z,100064.78
2022-09-02T15:07:34.683Z,100070.66
2022-09-02T15:10:01.509Z,100075.44
2022-09-02T15:12:32.563Z,100069.81
2022-09-02T15:14:59.958Z,100073.94
2022-09-02T15:17:27.375Z,100078.28
2022-09-02T15:19:54.287Z,100089.16
2022-09-02T15:22:23.152Z,100082.41
2022-09-02T15:24:51.703Z,100081.88
2022-09-02T15:27:21.487Z,100082.41
2022-09-02T15:29:49.085Z,100081.03
2022-09-02T15:32:16.287Z,100081.06
2022-09-02T15:34:42.977Z,100081.53
2022-09-02T15:37:12.778Z,100094.66
2022-09-02T15:39:40.248Z,100083.53
2022-09-02T15:42:06.915Z,100088.75
2022-09-02T15:44:33.540Z,100091.16
2022-09-02T15:47:00.217Z,100090.97
2022-09-02T15:49:27.063Z,100085.28
2022-09-02T15:51:55.096Z,100086.66
2022-09-02T15:54:23.711Z,100092.34
2022-09-02T15:56:57.386Z,100089.50
2022-09-02T15:59:24.798Z,100096.81
2022-09-02T16:01:53.586Z,100095.56
2022-09-02T16:04:20.221Z,100096.22
2022-09-02T16:06:48.925Z,100096.50
2022-09-02T16:09:17.159Z,100097.00
2022-09-02T16:11:54.820Z,100094.63
2022-09-02T16:14:22.281Z,100098.97
2022-09-02T16:16:50.772Z,100106.16
2022-09-02T16:19:22.185Z,100108.03
2022-09-02T16:21:50.130Z,100113.69
2022-09-02T16:24:17.640Z,100109.97
2022-09-02T16:26:44.339Z,100110.19
2022-09-02T16:29:13.176Z,100111.72
2022-09-02T16:31:42.081Z,100107.66
2022-09-02T16:34:17.156Z,100113.91
2022-09-02T16:36:46.175Z,100104.31
2022-09-02T16:39:14.251Z,100108.69
2022-09-02T16:41:52.195Z,100118.94
2022-09-02T16:44:22.173Z,100116.06
2022-09-02T16:46:50.365Z,100114.69
2022-09-02T16:49:19.440Z,100114.44
2022-09-02T16:51:48.576Z,100114.56
2022-09-02T16:54:17.452Z,100112.19
2022-09-02T16:56:48.885Z,100116.47
2022-09-02T16:59:15.526Z,100116.00
2022-09-02T17:01:42.270Z,100120.31
2022-09-02T17:04:09.078Z,100116.44
2022-09-02T17:06:41.883Z,100118.63
2022-09-02T17:09:09.616Z,100117.97
2022-09-02T17:11:38.118Z,100116.25
2022-09-02T17:14:07.756Z,100112.84
2022-09-02T17:16:43.192Z,100122.34
2022-09-02T17:19:10.252Z,100124.69
2022-09-02T17:21:45.034Z,100121.41
2022-09-02T17:24:13.389Z,100120.16
2022-09-02T17:26:42.131Z,100122.88
2022-09-02T17:29:17.301Z,100121.03
2022-09-02T17:31:57.623Z,100118.47
2022-09-02T17:34:24.260Z,100126.78
2022-09-02T17:36:50.900Z,100128.34
2022-09-02T17:39:19.555Z,100121.94
2022-09-02T17:41:46.302Z,100128.22
2022-09-02T17:44:14.389Z,100127.81
2022-09-02T17:46:41.787Z,100121.72
2022-09-02T17:49:17.687Z,100125.47
2022-09-02T17:51:45.306Z,100134.34
2022-09-02T17:54:14.967Z,100119.53
2022-09-02T17:56:44.488Z,100134.78
2022-09-02T17:59:20.124Z,100135.22
2022-09-02T18:01:58.737Z,100131.31
2022-09-02T18:04:34.316Z,100138.38
2022-09-02T18:07:11.627Z,100140.91
2022-09-02T18:09:39.172Z,100144.78
2022-09-02T18:12:05.885Z,100139.06
2022-09-02T18:14:38.627Z,100137.00
2022-09-02T18:17:22.583Z,100144.34
2022-09-02T18:20:11.158Z,100142.81
2022-09-02T18:22:52.729Z,100149.22
2022-09-02T18:25:47.422Z,100152.19
2022-09-02T18:28:50.733Z,100155.44
2022-09-02T18:31:23.495Z,100153.47
2022-09-02T18:34:08.714Z,100155.69
2022-09-02T18:36:47.733Z,100148.28
2022-09-02T18:39:40.502Z,100149.22
2022-09-02T18:42:38.030Z,100149.06
2022-09-02T18:45:21.854Z,100152.66
2022-09-02T18:47:54.407Z,100149.13
2022-09-02T18:50:49.010Z,100154.34
2022-09-02T18:53:22.355Z,100157.28
2022-09-02T18:55:51.749Z,100154.75
2022-09-02T18:58:33.036Z,100148.44
2022-09-02T19:01:39.634Z,100157.34
2022-09-02T19:04:06.378Z,100155.16
2022-09-02T19:06:35.523Z,100155.69
2022-09-02T19:09:05.905Z,100154.41
2022-09-02T19:11:34.917Z,100156.88
2022-09-02T19:14:27.578Z,100150.75
2022-09-02T19:16:55.973Z,100154.19
2022-09-02T19:19:22.648Z,100159.19
2022-09-02T19:21:52.563Z,100161.44
2022-09-02T19:24:27.007Z,100156.94
2022-09-02T19:26:58.941Z,100165.38
2022-09-02T19:29:26.408Z,100167.44
2022-09-02T19:31:53.613Z,100161.03
2022-09-02T19:34:20.827Z,100171.03
2022-09-02T19:36:50.570Z,100162.75
2022-09-02T19:39:17.267Z,100171.59
2022-09-02T19:41:43.944Z,100162.34
2022-09-02T19:44:10.564Z,100165.69
2022-09-02T19:47:24.706Z,100167.16
2022-09-02T19:49:24.041Z,100167.06
2022-09-02T19:51:50.841Z,100162.69
2022-09-02T19:54:17.703Z,100161.84
2022-09-02T19:56:44.461Z,100165.28
2022-09-02T19:59:11.519Z,100175.84
2022-09-02T20:01:38.591Z,100173.94
2022-09-02T20:04:05.541Z,100170.09
2022-09-02T20:06:32.667Z,100172.16
2022-09-02T20:08:59.346Z,100176.63
2022-09-02T20:11:26.017Z,100171.31
2022-09-02T20:13:52.682Z,100176.19
2022-09-02T20:16:24.922Z,100176.34
2022-09-02T20:18:53.058Z,100173.16
2022-09-02T20:21:26.303Z,100173.97
2022-09-02T20:23:53.729Z,100176.47
2022-09-02T20:26:31.004Z,100173.47
2022-09-02T20:29:15.782Z,100180.59
2022-09-02T20:32:14.724Z,100173.94
2022-09-02T20:34:55.215Z,100182.75
2022-09-02T20:37:40.412Z,100175.53
2022-09-02T20:40:27.564Z,100175.97
2022-09-02T20:43:32.401Z,100173.06
2022-09-02T20:46:11.142Z,100175.69
2022-09-02T20:49:09.771Z,100180.09
2022-09-02T20:52:00.719Z,100178.28
2022-09-02T20:54:45.104Z,100176.50
2022-09-02T20:57:40.253Z,100176.06
2022-09-02T21:00:13.402Z,100168.84
2022-09-02T21:03:04.483Z,100171.53
2022-09-02T21:05:42.259Z,100175.81
2022-09-02T21:08:20.813Z,100179.94
2022-09-02T21:10:52.626Z,100176.06
2022-09-02T21:13:36.834Z,100181.97
2022-09-02T21:16:19.519Z,100181.91
2022-09-02T21:19:05.370Z,100174.63
2022-09-02T21:21:53.103Z,100182.53
2022-09-02T21:24:46.195Z,100173.09
2022-09-02T21:27:27.731Z,100164.88
2022-09-02T21:30:02.958Z,100169.75
2022-09-02T21:32:52.004Z,100169.25
2022-09-02T21:35:23.006Z,100173.09
2022-09-02T21:37:58.288Z,100175.09
2022-09-02T21:40:39.875Z,100170.44
2022-09-02T21:43:24.798Z,100172.31
2022-09-02T21:46:21.145Z,100178.16
2022-09-02T21:49:03.360Z,100178.69
2022-09-02T21:51:38.334Z,100174.19
2022-09-02T21:54:23.476Z,100183.09
2022-09-02T21:57:12.205Z,100175.34
2022-09-02T21:59:54.780Z,100176.53
2022-09-02T22:03:00.777Z,100174.66
2022-09-02T22:05:39.024Z,100180.41
2022-09-02T22:08:29.736Z,100185.16
2022-09-02T22:11:23.880Z,100180.25
2022-09-02T22:13:50.577Z,100184.38
2022-09-02T22:16:35.618Z,100186.75
2022-09-02T22:19:05.599Z,100186.47
2022-09-02T22:21:36.865Z,100176.66
2022-09-02T22:24:04.203Z,100176.75
2022-09-02T22:26:38.427Z,100179.56
2022-09-02T22:29:13.305Z,100179.09
2022-09-02T22:31:42.240Z,100174.00
2022-09-02T22:34:09.095Z,100168.03
2022-09-02T22:36:54.634Z,100178.00
2022-09-02T22:39:53.756Z,100178.44
2022-09-02T22:42:31.712Z,100176.09
2022-09-02T22:45:14.452Z,100174.47
2022-09-02T22:47:48.645Z,100177.47
2022-09-02T22:50:21.403Z,100175.88
2022-09-02T22:52:49.190Z,100164.56
2022-09-02T22:55:49.330Z,100160.09
2022-09-02T22:58:43.880Z,100167.56
2022-09-02T23:01:19.592Z,100169.72
2022-09-02T23:03:56.673Z,100170.34
2022-09-02T23:06:29.158Z,100159.09
2022-09-02T23:08:56.928Z,100159.25
2022-09-02T23:11:40.007Z,100158.13
2022-09-02T23:14:19.019Z,100156.47
2022-09-02T23:17:21.974Z,100152.47
2022-09-02T23:20:08.208Z,100155.53
2022-09-02T23:23:06.925Z,100163.00
2022-09-02T23:25:36.959Z,100148.53
2022-09-02T23:28:16.542Z,100157.13
2022-09-02T23:30:55.504Z,100150.91
2022-09-02T23:33:58.530Z,100156.72
2022-09-02T23:36:36.516Z,100153.13
2022-09-02T23:39:12.039Z,100152.78
2022-09-02T23:41:42.836Z,100148.41
2022-09-02T23:44:10.327Z,100151.75
2022-09-02T23:47:06.268Z,100156.25
2022-09-02T23:49:44.427Z,100151.97
2022-09-02T23:52:51.401Z,100152.91
2022-09-02T23:55:37.462Z,100153.19
2022-09-02T23:58:25.408Z,100146.66
